Time;durP1;ratioP1;P1;durP2;ratioP2;P2;SDS_P1;SDS_P2;PMS_P1;PMS_P2;Temp;Humidity;BMP_temperature;BMP_pressure;BME280_temperature;BME280_humidity;BME280_pressure;Samples;Min_cycle;Max_cycle;Signal;HPM_P1;HPM_P2
2021/12/27 00:01:58;;;;;;;2.33;1.40;;;;;;;;;;5034330;28;20111;-36
2021/12/27 00:04:23;;;;;;;1.88;0.90;;;;;;;;;;5034451;28;20104;-36
2021/12/27 00:06:49;;;;;;;1.52;0.95;;;;;;;;;;5034625;28;20037;-36
2021/12/27 00:09:14;;;;;;;1.17;0.80;;;;;;;;;;5033164;28;20024;-36
2021/12/27 00:11:40;;;;;;;0.77;0.77;;;;;;;;;;5034477;28;20040;-36
2021/12/27 00:14:05;;;;;;;1.35;0.80;;;;;;;;;;5034575;28;20431;-36
2021/12/27 00:16:31;;;;;;;0.90;0.73;;;;;;;;;;5034236;28;20034;-36
2021/12/27 00:18:56;;;;;;;1.75;0.98;;;;;;;;;;5034435;28;20101;-36
2021/12/27 00:21:22;;;;;;;0.60;0.47;;;;;;;;;;5034433;28;20502;-36
2021/12/27 00:23:47;;;;;;;1.00;0.88;;;;;;;;;;5033952;28;20033;-36
2021/12/27 00:26:12;;;;;;;1.17;1.08;;;;;;;;;;5034402;28;20038;-36
2021/12/27 00:28:38;;;;;;;1.75;0.90;;;;;;;;;;5034019;28;20075;-36
2021/12/27 00:31:03;;;;;;;0.60;0.60;;;;;;;;;;5033932;28;20036;-36
2021/12/27 00:33:29;;;;;;;1.35;0.80;;;;;;;;;;5032683;28;20017;-36
2021/12/27 00:35:55;;;;;;;0.50;0.50;;;;;;;;;;5033777;28;20127;-36
2021/12/27 00:38:20;;;;;;;1.20;1.05;;;;;;;;;;5034224;28;20100;-36
2021/12/27 00:40:46;;;;;;;2.85;0.90;;;;;;;;;;5033323;28;20140;-36
2021/12/27 00:43:12;;;;;;;0.93;0.85;;;;;;;;;;5032743;28;20033;-36
2021/12/27 00:45:37;;;;;;;1.05;0.95;;;;;;;;;;5033820;28;20029;-36
2021/12/27 00:48:03;;;;;;;1.35;0.85;;;;;;;;;;5033834;28;20364;-36
2021/12/27 00:50:29;;;;;;;1.10;0.90;;;;;;;;;;5033635;28;20480;-36
2021/12/27 00:52:54;;;;;;;1.13;0.98;;;;;;;;;;5033467;28;20022;-36
2021/12/27 00:55:20;;;;;;;1.40;0.80;;;;;;;;;;5033550;28;20033;-36
2021/12/27 00:57:46;;;;;;;1.33;1.00;;;;;;;;;;5033466;28;20025;-36
2021/12/27 01:00:14;;;;;;;1.65;0.82;;;;;;;;;;5033402;28;20116;-36
2021/12/27 01:02:40;;;;;;;1.42;1.00;;;;;;;;;;5033422;28;20029;-36
2021/12/27 01:05:06;;;;;;;0.73;0.63;;;;;;;;;;5033276;28;20030;-36
2021/12/27 01:07:32;;;;;;;1.50;0.90;;;;;;;;;;5033308;28;20025;-36
2021/12/27 01:10:19;;;;;;;2.97;1.50;;;;;;;;;;5033502;28;20091;-36
2021/12/27 01:17:58;;;;;;;1.60;1.10;;;;;;;;;;5033321;28;20021;-36
2021/12/27 01:20:24;;;;;;;0.85;0.60;;;;;;;;;;5033128;28;20025;-37
2021/12/27 01:22:50;;;;;;;1.40;0.70;;;;;;;;;;5033024;28;20029;-37
2021/12/27 01:25:16;;;;;;;0.63;0.63;;;;;;;;;;5033045;28;20079;-36
2021/12/27 01:27:43;;;;;;;1.83;0.98;;;;;;;;;;5032913;28;20399;-36
2021/12/27 01:30:10;;;;;;;1.35;1.00;;;;;;;;;;5032906;28;20029;-36
2021/12/27 01:32:42;;;;;;;2.00;1.27;;;;;;;;;;5033097;28;20047;-36
2021/12/27 01:35:07;;;;;;;1.48;1.33;;;;;;;;;;5032739;28;20033;-36
2021/12/27 01:37:33;;;;;;;0.77;0.73;;;;;;;;;;5032775;28;20026;-36
2021/12/27 01:39:58;;;;;;;2.50;0.90;;;;;;;;;;5032923;28;20048;-36
2021/12/27 01:42:24;;;;;;;1.40;1.13;;;;;;;;;;5032298;28;20056;-36
2021/12/27 01:44:49;;;;;;;1.40;1.00;;;;;;;;;;5032808;28;20037;-36
2021/12/27 01:47:16;;;;;;;0.63;0.60;;;;;;;;;;5032875;28;20136;-37
2021/12/27 01:49:42;;;;;;;1.35;1.25;;;;;;;;;;5032390;28;20547;-36
2021/12/27 01:52:07;;;;;;;0.60;0.60;;;;;;;;;;5032628;28;20033;-36
2021/12/27 01:54:33;;;;;;;1.83;0.77;;;;;;;;;;5032095;28;20492;-36
2021/12/27 01:56:59;;;;;;;1.02;0.82;;;;;;;;;;5032291;28;20056;-36
2021/12/27 01:59:24;;;;;;;1.00;0.90;;;;;;;;;;5032387;28;20107;-36
2021/12/27 02:01:50;;;;;;;1.00;0.80;;;;;;;;;;5032384;28;20033;-36
2021/12/27 02:04:15;;;;;;;1.73;0.82;;;;;;;;;;5032447;28;20025;-36
2021/12/27 02:06:40;;;;;;;2.63;1.33;;;;;;;;;;5032321;28;20113;-36
2021/12/27 02:09:06;;;;;;;1.42;1.13;;;;;;;;;;5032333;28;20052;-36
2021/12/27 02:11:34;;;;;;;1.20;1.08;;;;;;;;;;5032070;28;20029;-36
2021/12/27 02:14:04;;;;;;;1.10;0.77;;;;;;;;;;5032296;28;20490;-36
2021/12/27 02:16:29;;;;;;;1.65;1.23;;;;;;;;;;5032352;28;20029;-36
2021/12/27 02:18:55;;;;;;;1.45;1.30;;;;;;;;;;5031913;28;20083;-36
2021/12/27 02:21:21;;;;;;;1.55;0.93;;;;;;;;;;5032157;28;20038;-36
2021/12/27 02:23:49;;;;;;;0.90;0.90;;;;;;;;;;5031816;28;20029;-36
2021/12/27 02:26:14;;;;;;;1.50;0.93;;;;;;;;;;5031831;28;20456;-36
2021/12/27 02:28:40;;;;;;;1.02;0.70;;;;;;;;;;5031866;28;20033;-36
2021/12/27 02:31:06;;;;;;;2.55;0.80;;;;;;;;;;5031772;28;20434;-36
2021/12/27 02:33:31;;;;;;;1.20;0.95;;;;;;;;;;5031710;28;20037;-36
2021/12/27 02:35:57;;;;;;;1.77;0.90;;;;;;;;;;5031942;28;20026;-36
2021/12/27 02:38:25;;;;;;;1.30;0.70;;;;;;;;;;5031715;28;20021;-36
2021/12/27 02:40:51;;;;;;;1.85;1.50;;;;;;;;;;5031248;28;20053;-37
2021/12/27 02:43:18;;;;;;;1.10;0.90;;;;;;;;;;5031897;28;20029;-36
2021/12/27 02:45:48;;;;;;;1.98;0.90;;;;;;;;;;5031786;28;20061;-36
2021/12/27 02:48:14;;;;;;;1.38;0.98;;;;;;;;;;5031458;28;20032;-36
2021/12/27 02:50:40;;;;;;;1.88;1.45;;;;;;;;;;5031560;28;20029;-36
2021/12/27 02:53:06;;;;;;;1.85;1.33;;;;;;;;;;5031602;28;20087;-36
2021/12/27 02:55:32;;;;;;;2.28;1.10;;;;;;;;;;5031734;28;20427;-36
2021/12/27 02:57:57;;;;;;;4.68;1.05;;;;;;;;;;5031352;28;20056;-36
2021/12/27 03:00:24;;;;;;;2.10;1.40;;;;;;;;;;5031575;28;20053;-36
2021/12/27 03:02:51;;;;;;;1.20;0.98;;;;;;;;;;5031163;28;20037;-36
2021/12/27 03:05:18;;;;;;;0.93;0.90;;;;;;;;;;5030490;28;20017;-36
2021/12/27 03:07:44;;;;;;;1.05;0.75;;;;;;;;;;5031516;28;20029;-36
2021/12/27 03:10:11;;;;;;;2.13;1.23;;;;;;;;;;5031221;28;20472;-36
2021/12/27 03:12:38;;;;;;;0.93;0.82;;;;;;;;;;5031488;28;20033;-35
2021/12/27 03:15:05;;;;;;;1.88;0.80;;;;;;;;;;5031407;28;20018;-36
2021/12/27 03:17:30;;;;;;;1.27;1.13;;;;;;;;;;5031481;28;20033;-36
2021/12/27 03:19:55;;;;;;;0.85;0.70;;;;;;;;;;5031383;28;20043;-36
2021/12/27 03:22:21;;;;;;;1.25;1.15;;;;;;;;;;5031025;28;20037;-36
2021/12/27 03:24:46;;;;;;;1.85;1.00;;;;;;;;;;5030999;28;20453;-36
2021/12/27 03:27:12;;;;;;;1.33;1.10;;;;;;;;;;5029855;28;20037;-36
2021/12/27 03:29:37;;;;;;;0.88;0.80;;;;;;;;;;5031340;28;20539;-36
2021/12/27 03:32:04;;;;;;;1.20;0.93;;;;;;;;;;5030925;28;20029;-36
2021/12/27 03:34:32;;;;;;;0.63;0.63;;;;;;;;;;5031092;28;20120;-36
2021/12/27 03:36:57;;;;;;;0.85;0.85;;;;;;;;;;5030839;28;20073;-36
2021/12/27 03:39:23;;;;;;;0.40;0.40;;;;;;;;;;5030061;28;20052;-36
2021/12/27 03:41:48;;;;;;;0.90;0.85;;;;;;;;;;5030746;28;20458;-36
2021/12/27 03:44:14;;;;;;;1.88;1.42;;;;;;;;;;5030922;28;20175;-36
2021/12/27 03:46:39;;;;;;;2.35;1.30;;;;;;;;;;5030935;28;20203;-36
2021/12/27 03:49:04;;;;;;;2.67;1.15;;;;;;;;;;5031081;28;20029;-36
2021/12/27 03:51:30;;;;;;;1.98;1.20;;;;;;;;;;5031043;28;20395;-36
2021/12/27 03:53:55;;;;;;;1.27;1.17;;;;;;;;;;5030733;28;20476;-36
2021/12/27 03:56:23;;;;;;;2.00;1.10;;;;;;;;;;5030869;28;20232;-36
2021/12/27 04:01:17;;;;;;;1.58;0.90;;;;;;;;;;5030949;28;20044;-36
2021/12/27 04:03:44;;;;;;;0.73;0.70;;;;;;;;;;5030830;28;20017;-36
2021/12/27 04:06:10;;;;;;;1.48;0.93;;;;;;;;;;5030680;28;20068;-36
2021/12/27 04:08:35;;;;;;;4.15;1.48;;;;;;;;;;5031018;28;20052;-36
2021/12/27 04:11:01;;;;;;;0.82;0.82;;;;;;;;;;5030940;28;20030;-36
2021/12/27 04:13:27;;;;;;;2.00;1.85;;;;;;;;;;5030883;28;20049;-36
2021/12/27 04:15:53;;;;;;;0.90;0.88;;;;;;;;;;5031091;28;20509;-36
2021/12/27 04:18:19;;;;;;;1.55;1.02;;;;;;;;;;5034256;28;20028;-36
2021/12/27 04:20:45;;;;;;;1.50;1.05;;;;;;;;;;5034159;28;20029;-36
2021/12/27 04:23:11;;;;;;;2.00;1.23;;;;;;;;;;5034015;28;20027;-36
2021/12/27 04:25:36;;;;;;;2.13;1.30;;;;;;;;;;5034359;28;20663;-36
2021/12/27 04:28:02;;;;;;;1.60;1.02;;;;;;;;;;5034321;28;20029;-36
2021/12/27 04:30:27;;;;;;;1.42;0.90;;;;;;;;;;5034329;28;20464;-36
2021/12/27 04:32:53;;;;;;;2.35;0.90;;;;;;;;;;5034120;28;20033;-36
2021/12/27 04:35:20;;;;;;;3.13;1.33;;;;;;;;;;5034179;28;20109;-36
2021/12/27 04:37:47;;;;;;;2.15;1.10;;;;;;;;;;5034184;28;20107;-36
2021/12/27 04:40:13;;;;;;;1.38;0.93;;;;;;;;;;5033683;28;20029;-36
2021/12/27 04:42:41;;;;;;;2.53;1.67;;;;;;;;;;5033951;28;20083;-36
2021/12/27 04:45:07;;;;;;;1.13;1.05;;;;;;;;;;5032421;28;20029;-36
2021/12/27 04:47:33;;;;;;;1.20;1.05;;;;;;;;;;5033715;28;20494;-37
2021/12/27 04:49:59;;;;;;;1.50;0.98;;;;;;;;;;5033861;28;20068;-36
2021/12/27 04:52:24;;;;;;;1.30;0.80;;;;;;;;;;5033628;28;20053;-36
2021/12/27 04:54:50;;;;;;;2.15;1.13;;;;;;;;;;5033744;28;20034;-36
2021/12/27 04:57:16;;;;;;;1.67;0.65;;;;;;;;;;5033579;28;20096;-36
2021/12/27 04:59:41;;;;;;;1.90;1.17;;;;;;;;;;5033492;28;20102;-36
2021/12/27 05:02:07;;;;;;;1.60;1.02;;;;;;;;;;5033211;28;20041;-36
2021/12/27 05:04:32;;;;;;;1.30;1.10;;;;;;;;;;5033680;28;20033;-36
2021/12/27 05:06:58;;;;;;;1.45;1.17;;;;;;;;;;5033564;28;20057;-36
2021/12/27 05:09:23;;;;;;;1.63;0.95;;;;;;;;;;5033198;28;20035;-36
2021/12/27 05:11:48;;;;;;;2.30;1.40;;;;;;;;;;5033168;28;20036;-36
2021/12/27 05:14:14;;;;;;;1.42;0.75;;;;;;;;;;5033567;28;20040;-36
2021/12/27 05:16:40;;;;;;;1.60;1.08;;;;;;;;;;5033412;28;20464;-36
2021/12/27 05:19:05;;;;;;;2.70;1.40;;;;;;;;;;5033049;28;20048;-36
2021/12/27 05:21:31;;;;;;;1.45;1.20;;;;;;;;;;5033033;28;20060;-36
2021/12/27 05:23:57;;;;;;;1.90;1.30;;;;;;;;;;5032958;28;20037;-36
2021/12/27 05:26:22;;;;;;;2.20;1.25;;;;;;;;;;5033023;28;20032;-36
2021/12/27 05:28:48;;;;;;;2.17;1.23;;;;;;;;;;5032177;28;20105;-36
2021/12/27 05:31:13;;;;;;;2.00;1.30;;;;;;;;;;5033075;28;20062;-36
2021/12/27 05:33:39;;;;;;;2.55;1.30;;;;;;;;;;5033161;28;20546;-36
2021/12/27 05:36:05;;;;;;;1.52;1.33;;;;;;;;;;5032736;28;20053;-36
2021/12/27 05:38:30;;;;;;;1.40;1.15;;;;;;;;;;5032721;28;20025;-37
2021/12/27 05:40:56;;;;;;;1.70;1.27;;;;;;;;;;5032562;28;20140;-36
2021/12/27 05:43:23;;;;;;;2.80;1.42;;;;;;;;;;5032739;28;20060;-36
2021/12/27 05:45:48;;;;;;;2.13;0.93;;;;;;;;;;5032788;28;20037;-36
2021/12/27 05:48:15;;;;;;;2.15;1.50;;;;;;;;;;5032548;28;20037;-36
2021/12/27 05:50:41;;;;;;;2.47;1.70;;;;;;;;;;5032871;28;20074;-35
2021/12/27 05:53:06;;;;;;;1.98;1.55;;;;;;;;;;5032280;28;20491;-36
2021/12/27 05:55:32;;;;;;;1.85;1.30;;;;;;;;;;5032547;28;20029;-36
2021/12/27 05:57:57;;;;;;;1.58;1.25;;;;;;;;;;5032334;28;20396;-36
2021/12/27 06:00:25;;;;;;;4.18;1.73;;;;;;;;;;5032490;28;20021;-36
2021/12/27 06:02:53;;;;;;;2.78;1.25;;;;;;;;;;5032422;28;20034;-36
2021/12/27 06:05:18;;;;;;;2.38;1.73;;;;;;;;;;5032451;28;20401;-36
2021/12/27 06:07:44;;;;;;;2.30;1.40;;;;;;;;;;5032177;28;20043;-36
2021/12/27 06:10:10;;;;;;;2.38;1.83;;;;;;;;;;5032377;28;20022;-35
2021/12/27 06:12:35;;;;;;;2.58;1.83;;;;;;;;;;5032029;28;20029;-36
2021/12/27 06:15:01;;;;;;;2.13;1.30;;;;;;;;;;5032297;28;20399;-36
2021/12/27 06:17:27;;;;;;;4.38;1.98;;;;;;;;;;5031942;28;20068;-36
2021/12/27 06:19:52;;;;;;;5.15;1.90;;;;;;;;;;5031884;28;20037;-36
2021/12/27 06:22:18;;;;;;;3.17;1.48;;;;;;;;;;5031797;28;20045;-36
2021/12/27 06:24:43;;;;;;;2.20;1.58;;;;;;;;;;5031944;28;20109;-36
2021/12/27 06:27:09;;;;;;;2.83;1.52;;;;;;;;;;5030523;28;20068;-36
2021/12/27 06:29:35;;;;;;;2.03;1.75;;;;;;;;;;5031856;28;20013;-36
2021/12/27 06:32:00;;;;;;;3.47;1.80;;;;;;;;;;5031693;28;20025;-36
2021/12/27 06:34:26;;;;;;;3.65;1.75;;;;;;;;;;5031740;28;20021;-36
2021/12/27 06:36:51;;;;;;;2.13;1.30;;;;;;;;;;5031665;28;20112;-36
2021/12/27 06:39:17;;;;;;;1.77;1.20;;;;;;;;;;5031653;28;20026;-36
2021/12/27 06:41:42;;;;;;;1.33;1.20;;;;;;;;;;5031308;28;20080;-36
2021/12/27 06:44:08;;;;;;;1.92;1.40;;;;;;;;;;5031533;28;20102;-36
2021/12/27 06:46:33;;;;;;;2.75;1.98;;;;;;;;;;5031932;28;20044;-36
2021/12/27 06:48:59;;;;;;;2.67;1.40;;;;;;;;;;5030165;28;20021;-36
2021/12/27 06:51:25;;;;;;;2.47;1.73;;;;;;;;;;5030299;28;20025;-35
2021/12/27 06:53:50;;;;;;;2.47;1.33;;;;;;;;;;5031429;28;20503;-36
2021/12/27 06:56:16;;;;;;;2.20;1.73;;;;;;;;;;5031406;28;20028;-36
2021/12/27 06:58:41;;;;;;;1.45;1.30;;;;;;;;;;5031665;28;20516;-36
2021/12/27 07:01:07;;;;;;;2.53;1.77;;;;;;;;;;5031503;28;20411;-35
2021/12/27 07:03:32;;;;;;;2.10;1.60;;;;;;;;;;5031609;28;20523;-36
2021/12/27 07:05:59;;;;;;;2.22;1.73;;;;;;;;;;5031283;28;20479;-36
2021/12/27 07:08:24;;;;;;;3.33;2.10;;;;;;;;;;5031253;28;20045;-36
2021/12/27 07:10:50;;;;;;;2.75;1.38;;;;;;;;;;5030129;28;20119;-36
2021/12/27 07:13:16;;;;;;;3.40;1.95;;;;;;;;;;5031240;28;20391;-36
2021/12/27 07:15:41;;;;;;;1.52;1.30;;;;;;;;;;5031247;28;20033;-36
2021/12/27 07:18:11;;;;;;;3.15;2.03;;;;;;;;;;5031042;28;20021;-36
2021/12/27 07:20:37;;;;;;;2.08;1.73;;;;;;;;;;5031476;28;20033;-36
2021/12/27 07:23:03;;;;;;;3.38;2.10;;;;;;;;;;5031016;28;20606;-36
2021/12/27 07:25:29;;;;;;;5.53;2.30;;;;;;;;;;5031393;28;20084;-36
2021/12/27 07:27:54;;;;;;;3.22;1.80;;;;;;;;;;5031265;28;20064;-36
2021/12/27 07:30:20;;;;;;;3.13;1.65;;;;;;;;;;5031157;28;20111;-36
2021/12/27 07:32:45;;;;;;;5.70;1.90;;;;;;;;;;5030909;28;20026;-36
2021/12/27 07:35:11;;;;;;;4.63;1.60;;;;;;;;;;5030992;28;20057;-36
2021/12/27 07:37:37;;;;;;;1.83;1.27;;;;;;;;;;5031390;28;20254;-36
2021/12/27 07:40:04;;;;;;;2.25;1.00;;;;;;;;;;5031133;28;20036;-36
2021/12/27 07:42:29;;;;;;;3.15;1.83;;;;;;;;;;5030742;28;20112;-36
2021/12/27 07:44:55;;;;;;;2.83;1.60;;;;;;;;;;5031158;28;20057;-36
2021/12/27 07:47:20;;;;;;;2.25;1.65;;;;;;;;;;5031007;28;20025;-36
2021/12/27 07:49:46;;;;;;;3.38;2.22;;;;;;;;;;5030992;28;20036;-36
2021/12/27 07:52:11;;;;;;;4.18;1.98;;;;;;;;;;5033370;28;20045;-36
2021/12/27 07:54:37;;;;;;;3.38;1.98;;;;;;;;;;5034992;28;20037;-36
2021/12/27 07:57:03;;;;;;;5.13;1.70;;;;;;;;;;5034641;28;20033;-36
2021/12/27 07:59:29;;;;;;;2.88;1.73;;;;;;;;;;5034889;28;20364;-36
2021/12/27 08:01:54;;;;;;;4.15;2.22;;;;;;;;;;5034413;28;20044;-35
2021/12/27 08:04:20;;;;;;;2.13;1.60;;;;;;;;;;5034580;28;20442;-39
2021/12/27 08:06:45;;;;;;;2.22;1.42;;;;;;;;;;5034535;28;20026;-36
2021/12/27 08:09:11;;;;;;;7.38;2.30;;;;;;;;;;5034642;28;20373;-35
2021/12/27 08:11:36;;;;;;;1.83;1.58;;;;;;;;;;5034401;28;20021;-36
2021/12/27 08:14:03;;;;;;;2.78;2.33;;;;;;;;;;5034602;28;20478;-36
2021/12/27 08:16:28;;;;;;;5.05;2.28;;;;;;;;;;5034308;28;20486;-36
2021/12/27 08:18:55;;;;;;;2.80;1.85;;;;;;;;;;5034218;28;20033;-36
2021/12/27 08:21:21;;;;;;;3.50;2.83;;;;;;;;;;5034143;28;20030;-36
2021/12/27 08:23:47;;;;;;;1.92;1.60;;;;;;;;;;5034418;28;20030;-36
2021/12/27 08:26:12;;;;;;;2.17;1.60;;;;;;;;;;5034125;28;20044;-36
2021/12/27 08:28:38;;;;;;;1.80;1.23;;;;;;;;;;5034106;28;20030;-36
2021/12/27 08:31:04;;;;;;;3.10;1.98;;;;;;;;;;5033932;28;20083;-36
2021/12/27 08:33:30;;;;;;;3.25;1.95;;;;;;;;;;5034051;28;20112;-36
2021/12/27 08:35:56;;;;;;;3.35;1.65;;;;;;;;;;5034132;28;20080;-36
2021/12/27 08:38:22;;;;;;;3.45;1.60;;;;;;;;;;5033933;28;20040;-36
2021/12/27 08:40:47;;;;;;;2.05;1.48;;;;;;;;;;5033726;28;20057;-36
2021/12/27 08:43:13;;;;;;;2.90;1.98;;;;;;;;;;5033598;28;20037;-36
2021/12/27 08:45:38;;;;;;;3.35;2.40;;;;;;;;;;5034173;28;20049;-36
2021/12/27 08:48:04;;;;;;;4.28;2.55;;;;;;;;;;5033908;28;20036;-36
2021/12/27 08:50:30;;;;;;;3.28;2.15;;;;;;;;;;5033701;28;20460;-36
2021/12/27 08:52:56;;;;;;;1.77;1.55;;;;;;;;;;5033867;28;20037;-36
2021/12/27 08:55:21;;;;;;;2.50;1.85;;;;;;;;;;5033603;28;20026;-36
2021/12/27 08:57:47;;;;;;;2.45;1.45;;;;;;;;;;5033824;28;20029;-38
2021/12/27 09:00:15;;;;;;;2.05;1.60;;;;;;;;;;5033740;28;20514;-36
2021/12/27 09:02:40;;;;;;;2.20;1.70;;;;;;;;;;5032523;28;20095;-36
2021/12/27 09:05:06;;;;;;;3.88;1.55;;;;;;;;;;5033305;28;20388;-36
2021/12/27 09:07:32;;;;;;;1.63;1.25;;;;;;;;;;5033384;28;20030;-36
2021/12/27 09:09:57;;;;;;;2.72;1.65;;;;;;;;;;5033285;28;20049;-36
2021/12/27 09:12:23;;;;;;;2.22;1.45;;;;;;;;;;5033198;28;20056;-36
2021/12/27 09:14:50;;;;;;;1.65;1.40;;;;;;;;;;5033318;28;20061;-35
2021/12/27 09:17:16;;;;;;;3.67;1.48;;;;;;;;;;5033223;28;20052;-37
2021/12/27 09:19:42;;;;;;;4.90;1.65;;;;;;;;;;5033189;28;20152;-36
2021/12/27 09:22:09;;;;;;;2.53;1.75;;;;;;;;;;5033004;28;20063;-36
2021/12/27 09:24:34;;;;;;;3.33;1.92;;;;;;;;;;5033363;28;20044;-36
2021/12/27 09:27:00;;;;;;;3.58;1.42;;;;;;;;;;5032891;28;20509;-36
2021/12/27 09:29:26;;;;;;;3.33;2.00;;;;;;;;;;5033333;28;20021;-36
2021/12/27 09:31:51;;;;;;;8.35;1.70;;;;;;;;;;5032897;28;20034;-36
2021/12/27 09:34:17;;;;;;;0.82;0.82;;;;;;;;;;5032904;28;20384;-36
2021/12/27 09:36:43;;;;;;;1.17;1.00;;;;;;;;;;5031621;28;20040;-36
2021/12/27 09:39:08;;;;;;;1.77;1.23;;;;;;;;;;5032689;28;20017;-36
2021/12/27 09:41:34;;;;;;;4.25;2.80;;;;;;;;;;5032667;28;20059;-36
2021/12/27 09:43:59;;;;;;;3.70;1.65;;;;;;;;;;5032964;28;20029;-36
2021/12/27 09:46:25;;;;;;;1.70;1.30;;;;;;;;;;5032959;28;20092;-36
2021/12/27 09:48:52;;;;;;;2.78;1.77;;;;;;;;;;5032960;28;20024;-36
2021/12/27 09:51:18;;;;;;;1.98;1.23;;;;;;;;;;5032581;28;20032;-36
2021/12/27 09:53:43;;;;;;;3.35;1.98;;;;;;;;;;5032524;28;20479;-36
2021/12/27 09:56:09;;;;;;;2.03;1.30;;;;;;;;;;5032339;28;20025;-36
2021/12/27 09:58:35;;;;;;;1.85;1.00;;;;;;;;;;5032775;28;20053;-36
2021/12/27 10:01:03;;;;;;;2.63;1.52;;;;;;;;;;5032267;28;20492;-36
2021/12/27 10:03:29;;;;;;;2.05;1.52;;;;;;;;;;5032227;28;20472;-36
2021/12/27 10:06:07;;;;;;;2.35;2.05;;;;;;;;;;5032255;28;20072;-36
2021/12/27 10:08:33;;;;;;;1.70;1.20;;;;;;;;;;5032176;28;20040;-38
2021/12/27 10:10:58;;;;;;;2.00;1.58;;;;;;;;;;5032066;28;20033;-36
2021/12/27 10:13:24;;;;;;;2.17;1.67;;;;;;;;;;5032035;28;20037;-36
2021/12/27 10:15:49;;;;;;;2.83;1.45;;;;;;;;;;5032167;28;20033;-36
2021/12/27 10:18:15;;;;;;;1.40;1.23;;;;;;;;;;5032265;28;20033;-36
2021/12/27 10:20:42;;;;;;;2.45;1.55;;;;;;;;;;5032292;28;20036;-36
2021/12/27 10:23:08;;;;;;;2.97;1.27;;;;;;;;;;5031748;28;20037;-36
2021/12/27 10:25:33;;;;;;;1.90;1.45;;;;;;;;;;5031939;28;20014;-36
2021/12/27 10:27:59;;;;;;;2.45;1.50;;;;;;;;;;5032153;28;20033;-35
2021/12/27 10:30:26;;;;;;;2.85;1.90;;;;;;;;;;5031780;28;20022;-36
2021/12/27 10:33:06;;;;;;;2.22;1.60;;;;;;;;;;5031785;28;20071;-36
2021/12/27 10:35:36;;;;;;;8.73;1.48;;;;;;;;;;5032104;28;20041;-36
2021/12/27 10:38:15;;;;;;;2.97;1.40;;;;;;;;;;5031923;28;20416;-36
2021/12/27 10:41:04;;;;;;;4.97;1.60;;;;;;;;;;5031503;28;20559;-36
2021/12/27 10:43:38;;;;;;;1.88;1.35;;;;;;;;;;5028542;28;20045;-36
2021/12/27 10:46:04;;;;;;;1.70;1.60;;;;;;;;;;5031731;28;20472;-36
2021/12/27 10:48:34;;;;;;;2.97;1.60;;;;;;;;;;5031646;28;20079;-36
2021/12/27 10:51:00;;;;;;;1.77;1.67;;;;;;;;;;5031365;28;20083;-36
2021/12/27 10:53:25;;;;;;;3.45;1.73;;;;;;;;;;5031790;28;20025;-36
2021/12/27 10:55:50;;;;;;;2.15;1.35;;;;;;;;;;5031505;28;20037;-36
2021/12/27 10:58:24;;;;;;;2.13;1.00;;;;;;;;;;5031301;28;20100;-36
2021/12/27 11:00:52;;;;;;;1.85;1.00;;;;;;;;;;5031443;28;20091;-36
2021/12/27 11:03:23;;;;;;;2.53;1.20;;;;;;;;;;5031450;28;20112;-36
2021/12/27 11:05:49;;;;;;;2.35;1.58;;;;;;;;;;5031593;28;20419;-36
2021/12/27 11:08:14;;;;;;;2.10;1.33;;;;;;;;;;5029945;28;20087;-36
2021/12/27 11:10:40;;;;;;;2.78;1.20;;;;;;;;;;5031293;28;20104;-36
2021/12/27 11:13:06;;;;;;;1.92;0.88;;;;;;;;;;5031144;28;20068;-36
2021/12/27 11:15:33;;;;;;;2.25;1.58;;;;;;;;;;5031292;28;20033;-36
2021/12/27 11:17:58;;;;;;;1.88;1.08;;;;;;;;;;5031136;28;20029;-36
2021/12/27 11:20:25;;;;;;;2.15;1.40;;;;;;;;;;5031142;28;20116;-36
2021/12/27 11:22:52;;;;;;;2.88;1.58;;;;;;;;;;5031442;28;20040;-35
2021/12/27 11:25:21;;;;;;;1.98;1.20;;;;;;;;;;5031134;28;20030;-35
2021/12/27 11:27:47;;;;;;;1.10;0.90;;;;;;;;;;5035142;28;20032;-36
2021/12/27 11:30:16;;;;;;;1.77;1.40;;;;;;;;;;5035457;28;20410;-36
2021/12/27 11:33:00;;;;;;;1.95;1.17;;;;;;;;;;5035414;28;20070;-36
2021/12/27 11:35:25;;;;;;;0.88;0.85;;;;;;;;;;5035227;28;20345;-36
2021/12/27 11:37:51;;;;;;;2.42;1.35;;;;;;;;;;5035359;28;20026;-36
2021/12/27 11:40:17;;;;;;;5.70;4.10;;;;;;;;;;5034779;28;20029;-37
2021/12/27 11:42:56;;;;;;;3.03;1.40;;;;;;;;;;5035162;28;20041;-36
2021/12/27 11:45:36;;;;;;;1.73;1.05;;;;;;;;;;5034977;28;20033;-36
2021/12/27 11:48:06;;;;;;;2.00;1.30;;;;;;;;;;5034694;28;20037;-36
2021/12/27 11:50:32;;;;;;;0.75;0.73;;;;;;;;;;5034814;28;20807;-36
2021/12/27 11:53:04;;;;;;;2.10;1.42;;;;;;;;;;5034731;28;20059;-36
2021/12/27 11:55:37;;;;;;;1.80;1.55;;;;;;;;;;5034721;28;20025;-36
2021/12/27 11:58:02;;;;;;;1.55;1.30;;;;;;;;;;5034666;28;20071;-36
2021/12/27 12:00:27;;;;;;;2.38;1.40;;;;;;;;;;5034680;28;20064;-35
2021/12/27 12:02:55;;;;;;;1.23;0.95;;;;;;;;;;5034765;28;20465;-36
2021/12/27 12:05:42;;;;;;;2.47;1.30;;;;;;;;;;5034880;28;20380;-36
2021/12/27 12:08:08;;;;;;;2.08;1.30;;;;;;;;;;5034398;28;20129;-36
2021/12/27 12:10:34;;;;;;;2.05;1.35;;;;;;;;;;5034657;28;20096;-36
2021/12/27 12:13:18;;;;;;;3.22;1.33;;;;;;;;;;5034711;28;20056;-36
2021/12/27 12:15:58;;;;;;;2.30;1.17;;;;;;;;;;5034240;28;20040;-36
2021/12/27 12:18:26;;;;;;;1.10;0.70;;;;;;;;;;5034431;28;20040;-36
2021/12/27 12:20:51;;;;;;;1.83;1.25;;;;;;;;;;5034208;28;20024;-36
2021/12/27 12:23:17;;;;;;;3.55;1.58;;;;;;;;;;5034340;28;20049;-36
2021/12/27 12:25:43;;;;;;;1.73;1.40;;;;;;;;;;5034246;28;20471;-36
2021/12/27 12:28:13;;;;;;;1.52;1.00;;;;;;;;;;5034164;28;20048;-36
2021/12/27 12:30:46;;;;;;;1.40;1.17;;;;;;;;;;5034010;28;20534;-36
2021/12/27 12:33:11;;;;;;;;;;;;;;;;;;5034751;28;20599;-36
2021/12/27 12:35:37;;;;;;;1.02;0.93;;;;;;;;;;5034052;28;20012;-36
2021/12/27 12:38:15;;;;;;;3.33;1.48;;;;;;;;;;5033579;28;20116;-36
2021/12/27 12:40:41;;;;;;;2.63;1.40;;;;;;;;;;5033684;28;20508;-36
2021/12/27 12:43:07;;;;;;;1.88;1.20;;;;;;;;;;5033762;28;20057;-36
2021/12/27 12:45:37;;;;;;;3.75;1.25;;;;;;;;;;5034109;28;20419;-36
2021/12/27 12:48:04;;;;;;;2.15;1.52;;;;;;;;;;5033952;28;20037;-36
2021/12/27 12:50:30;;;;;;;2.55;1.55;;;;;;;;;;5033799;28;20040;-36
2021/12/27 12:52:58;;;;;;;1.75;1.63;;;;;;;;;;5033847;28;20521;-35
2021/12/27 12:55:28;;;;;;;3.72;1.70;;;;;;;;;;5033657;28;20488;-36
2021/12/27 12:57:54;;;;;;;1.92;1.50;;;;;;;;;;5033694;28;20025;-36
2021/12/27 13:00:21;;;;;;;2.28;1.02;;;;;;;;;;5033394;28;20041;-36
2021/12/27 13:02:47;;;;;;;1.05;1.00;;;;;;;;;;5033448;28;20037;-35
2021/12/27 13:05:15;;;;;;;2.92;1.35;;;;;;;;;;5033405;28;20459;-36
2021/12/27 13:07:45;;;;;;;2.80;1.40;;;;;;;;;;5033682;28;20033;-36
2021/12/27 13:10:19;;;;;;;2.33;1.80;;;;;;;;;;5033594;28;20033;-36
2021/12/27 13:12:45;;;;;;;1.65;1.30;;;;;;;;;;5033310;28;20044;-36
2021/12/27 13:15:12;;;;;;;1.55;1.15;;;;;;;;;;5033291;28;20408;-35
2021/12/27 13:17:38;;;;;;;1.58;1.48;;;;;;;;;;5033314;28;20407;-36
2021/12/27 13:20:06;;;;;;;2.05;1.30;;;;;;;;;;5033100;28;20032;-36
2021/12/27 13:22:38;;;;;;;2.25;1.27;;;;;;;;;;5031810;28;20592;-36
2021/12/27 13:25:04;;;;;;;1.60;1.30;;;;;;;;;;5033113;28;20120;-36
2021/12/27 13:27:30;;;;;;;1.95;1.23;;;;;;;;;;5033085;28;20028;-36
2021/12/27 13:30:09;;;;;;;3.72;1.42;;;;;;;;;;5033130;28;20108;-36
2021/12/27 13:32:41;;;;;;;2.13;0.98;;;;;;;;;;5032958;28;20384;-36
2021/12/27 13:35:10;;;;;;;1.30;1.20;;;;;;;;;;5033088;28;20036;-36
2021/12/27 13:37:36;;;;;;;1.05;0.90;;;;;;;;;;5033119;28;20475;-36
2021/12/27 13:40:09;;;;;;;1.45;1.10;;;;;;;;;;5033116;28;20109;-36
2021/12/27 13:42:35;;;;;;;3.13;1.13;;;;;;;;;;5032933;28;20052;-37
2021/12/27 13:45:27;;;;;;;1.90;0.93;;;;;;;;;;5032632;28;20025;-37
2021/12/27 13:47:57;;;;;;;4.65;1.00;;;;;;;;;;5031515;28;20047;-37
2021/12/27 13:50:27;;;;;;;3.08;1.38;;;;;;;;;;5031944;28;20026;-36
2021/12/27 13:52:54;;;;;;;1.75;1.58;;;;;;;;;;5032863;28;20030;-35
2021/12/27 13:55:20;;;;;;;2.13;1.35;;;;;;;;;;5032308;28;20021;-36
2021/12/27 13:57:46;;;;;;;1.95;1.42;;;;;;;;;;5032790;28;20032;-36
2021/12/27 14:00:12;;;;;;;1.70;1.30;;;;;;;;;;5032313;28;20021;-36
2021/12/27 14:02:41;;;;;;;2.67;1.73;;;;;;;;;;5032323;28;20131;-36
2021/12/27 14:05:07;;;;;;;2.92;1.65;;;;;;;;;;5032300;28;20101;-36
2021/12/27 14:07:33;;;;;;;2.33;1.42;;;;;;;;;;5032297;28;20633;-36
2021/12/27 14:09:59;;;;;;;1.85;1.50;;;;;;;;;;5032148;28;20104;-36
2021/12/27 14:12:30;;;;;;;2.22;1.45;;;;;;;;;;5032092;28;20546;-36
2021/12/27 14:15:01;;;;;;;2.42;1.23;;;;;;;;;;5032362;28;20034;-36
2021/12/27 14:17:28;;;;;;;1.42;1.33;;;;;;;;;;5030779;28;20116;-36
2021/12/27 14:20:05;;;;;;;3.15;1.38;;;;;;;;;;5032062;28;20514;-36
2021/12/27 14:22:37;;;;;;;1.30;1.20;;;;;;;;;;5031966;28;20030;-35
2021/12/27 14:25:03;;;;;;;2.75;1.50;;;;;;;;;;5031864;28;20473;-35
2021/12/27 14:27:45;;;;;;;1.52;1.15;;;;;;;;;;5032006;28;20036;-36
2021/12/27 14:30:16;;;;;;;2.70;1.92;;;;;;;;;;5032088;28;20103;-37
2021/12/27 14:32:48;;;;;;;6.95;1.73;;;;;;;;;;5032133;28;20057;-36
2021/12/27 14:35:16;;;;;;;2.33;1.48;;;;;;;;;;5032018;28;20468;-36
2021/12/27 14:37:41;;;;;;;2.95;1.27;;;;;;;;;;5031813;28;20025;-36
2021/12/27 14:40:07;;;;;;;1.60;1.00;;;;;;;;;;5031608;28;20074;-36
2021/12/27 14:42:32;;;;;;;1.92;1.52;;;;;;;;;;5031639;28;20399;-36
2021/12/27 14:44:59;;;;;;;2.08;1.15;;;;;;;;;;5031771;28;20030;-36
2021/12/27 14:47:24;;;;;;;1.42;1.30;;;;;;;;;;5031669;28;20525;-36
2021/12/27 14:49:51;;;;;;;3.30;1.45;;;;;;;;;;5031681;28;20104;-38